Associate3 — 2JKN9 — position and weather

sailwx.info

Track history (hours):
 
Tides and Currents Weather Stations Pressure Air Temp Water Temp Dewpoint Dewpoint Depression Visibility Wind Speed Wind Dir Waves Ship Positions

Associate3

Last reported at 2017-Nov-05 18:21 UTC. Time now 2017-Nov-18 04:34 UTC.
Position N 28°08' W 015°26'.
Warning: this ship's position is 12 days out of date.

Type: Pleasure craft. MMSI: 235116837.

Date/timePositionNaut miles runAvg speedWind from/ knotsBaromVisibWave heightAir tempDewpointWater temp
2017-Nov-05 18:21N 28°08' W 015°26'0 0.0
2017-Nov-05 17:51N 28°08' W 015°26'0 0.3
2017-Nov-05 17:22N 28°08' W 015°25'0 0.0
2017-Nov-05 16:52N 28°08' W 015°25'1 1.3
2017-Nov-05 16:26N 28°08' W 015°25'3 6.2
2017-Nov-05 15:55N 28°07' W 015°21'4 7.4
2017-Nov-05 15:25N 28°07' W 015°17'3 7.6
2017-Nov-05 15:00N 28°07' W 015°14'4 7.3
2017-Nov-05 14:30N 28°07' W 015°09'4 7.6
2017-Nov-05 14:00N 28°07' W 015°05'4 8.0
2017-Nov-05 13:30N 28°07' W 015°01'4 8.0
2017-Nov-05 13:00N 28°07' W 014°56'4 8.2
2017-Nov-05 12:30N 28°06' W 014°51'79 1.6
2017-Nov-03 09:55N 28°55' W 013°40'3 6.0
2017-Nov-03 09:30N 28°55' W 013°37'3 6.1
2017-Nov-03 08:59N 28°56' W 013°34'3 5.2
2017-Nov-03 08:30N 28°58' W 013°32'  
Track history (hours):
 
Tides and Currents Weather Stations Pressure Air Temp Water Temp Dewpoint Dewpoint Depression Visibility Wind Speed Wind Dir Waves Ship Positions

Associate3

Last reported at 2017-Nov-05 18:21 UTC. Time now 2017-Nov-18 04:34 UTC.
Position N 28°08' W 015°26'.
Warning: this ship's position is 12 days out of date.

Type: Pleasure craft. MMSI: 235116837.

Date/timePositionNaut miles runAvg speedWind from/ knotsBaromVisibWave heightAir tempDewpointWater temp
2017-Nov-05 18:21N 28°08' W 015°26'0 0.0
2017-Nov-05 17:51N 28°08' W 015°26'0 0.3
2017-Nov-05 17:22N 28°08' W 015°25'0 0.0
2017-Nov-05 16:52N 28°08' W 015°25'1 1.3
2017-Nov-05 16:26N 28°08' W 015°25'3 6.2
2017-Nov-05 15:55N 28°07' W 015°21'4 7.4
2017-Nov-05 15:25N 28°07' W 015°17'3 7.6
2017-Nov-05 15:00N 28°07' W 015°14'4 7.3
2017-Nov-05 14:30N 28°07' W 015°09'4 7.6
2017-Nov-05 14:00N 28°07' W 015°05'4 8.0
2017-Nov-05 13:30N 28°07' W 015°01'4 8.0
2017-Nov-05 13:00N 28°07' W 014°56'4 8.2
2017-Nov-05 12:30N 28°06' W 014°51'79 1.6
2017-Nov-03 09:55N 28°55' W 013°40'3 6.0
2017-Nov-03 09:30N 28°55' W 013°37'3 6.1
2017-Nov-03 08:59N 28°56' W 013°34'3 5.2
2017-Nov-03 08:30N 28°58' W 013°32'  

Dump ship's entire track history